createdAt,value
2023-08-12T00:04:52.665Z,13.57
2023-08-12T00:19:55.419Z,13.46
2023-08-12T00:34:58.135Z,13.39
2023-08-12T00:50:01.072Z,13.21
2023-08-12T01:05:04.489Z,13.19
2023-08-12T01:20:15.960Z,13.28
2023-08-12T01:35:22.653Z,13.26
2023-08-12T01:50:26.882Z,13.38
2023-08-12T02:05:29.766Z,13.66
2023-08-12T02:20:32.520Z,13.73
2023-08-12T02:35:35.229Z,13.76
2023-08-12T02:50:38.594Z,13.74
2023-08-12T03:05:42.072Z,13.74
2023-08-12T03:20:44.822Z,13.71
2023-08-12T03:35:51.326Z,13.67
2023-08-12T03:50:54.041Z,13.79
2023-08-12T04:05:56.720Z,13.95
2023-08-12T04:20:59.507Z,14.33
2023-08-12T04:36:02.543Z,14.84
2023-08-12T04:51:06.341Z,15.90
2023-08-12T05:06:09.000Z,18.56
2023-08-12T05:21:11.808Z,20.33
2023-08-12T05:36:14.618Z,22.09
2023-08-12T05:51:17.319Z,23.37
2023-08-12T06:06:20.352Z,23.63
2023-08-12T06:21:22.999Z,24.77
2023-08-12T06:36:25.758Z,24.87
2023-08-12T06:51:28.547Z,26.87
2023-08-12T07:06:31.249Z,29.30
2023-08-12T07:21:33.941Z,29.68
2023-08-12T07:36:36.703Z,29.86
2023-08-12T07:51:39.447Z,29.52
2023-08-12T08:06:42.312Z,29.71
2023-08-12T08:21:45.291Z,29.84
2023-08-12T08:36:48.112Z,32.09
2023-08-12T08:51:51.413Z,31.85
2023-08-12T09:06:54.775Z,31.48
2023-08-12T09:21:57.523Z,32.61
2023-08-12T09:37:00.684Z,32.35
2023-08-12T09:52:05.901Z,31.50
2023-08-12T10:07:10.446Z,30.85
2023-08-12T10:22:15.833Z,31.33
2023-08-12T10:37:18.881Z,31.67
2023-08-12T10:52:32.679Z,30.32
2023-08-12T11:07:40.457Z,30.37
2023-08-12T11:22:45.177Z,30.12
2023-08-12T11:37:50.314Z,30.38
2023-08-12T11:52:59.780Z,30.70
2023-08-12T12:08:02.804Z,30.49
2023-08-12T12:23:08.591Z,30.22
2023-08-12T12:38:11.460Z,29.84
2023-08-12T12:53:14.171Z,29.98
2023-08-12T13:08:16.846Z,29.60
2023-08-12T13:23:19.563Z,29.66
2023-08-12T13:38:22.297Z,29.72
2023-08-12T13:53:25.311Z,29.72
2023-08-12T14:08:28.015Z,29.61
2023-08-12T14:23:31.052Z,29.61
2023-08-12T14:38:34.223Z,29.69
2023-08-12T14:53:36.954Z,29.52
2023-08-12T15:08:39.782Z,29.66
2023-08-12T15:23:42.538Z,29.55
2023-08-12T15:38:47.306Z,29.66
2023-08-12T15:53:49.983Z,29.69
2023-08-12T16:09:09.907Z,29.54
2023-08-12T16:24:15.977Z,29.45
2023-08-12T16:39:19.326Z,29.31
2023-08-12T16:54:22.347Z,29.12
2023-08-12T17:09:25.205Z,28.69
2023-08-12T17:24:27.938Z,28.06
2023-08-12T17:39:31.668Z,27.49
2023-08-12T17:54:34.592Z,27.03
2023-08-12T18:09:37.298Z,26.63
2023-08-12T18:24:40.048Z,26.21
2023-08-12T18:39:42.902Z,25.79
2023-08-12T18:54:45.684Z,25.33
2023-08-12T19:09:48.366Z,24.97
2023-08-12T19:24:51.072Z,25.01
2023-08-12T19:39:53.897Z,24.92
2023-08-12T19:54:57.726Z,24.82
2023-08-12T20:10:00.530Z,24.77
2023-08-12T20:25:03.530Z,24.73
2023-08-12T20:40:07.226Z,24.65
2023-08-12T20:55:10.041Z,24.40
2023-08-12T21:10:13.157Z,23.86
2023-08-12T21:25:16.693Z,23.18
2023-08-12T21:40:19.693Z,22.61
2023-08-12T21:55:22.631Z,22.24
2023-08-12T22:10:25.478Z,21.91
2023-08-12T22:25:28.435Z,22.04
2023-08-12T22:40:31.259Z,22.03
2023-08-12T22:55:33.991Z,21.78
2023-08-12T23:10:36.699Z,21.70
2023-08-12T23:25:39.554Z,21.82
2023-08-12T23:40:42.295Z,21.99
2023-08-12T23:55:45.130Z,21.97
